createdAt,value
2023-03-15T00:02:01.402Z,4.19
2023-03-15T00:04:28.822Z,4.20
2023-03-15T00:06:56.002Z,4.18
2023-03-15T00:09:22.811Z,4.20
2023-03-15T00:11:50.110Z,4.21
2023-03-15T00:14:17.123Z,4.27
2023-03-15T00:16:44.557Z,4.26
2023-03-15T00:19:13.615Z,4.30
2023-03-15T00:21:41.554Z,4.33
2023-03-15T00:24:08.803Z,4.32
2023-03-15T00:26:35.540Z,4.40
2023-03-15T00:29:02.422Z,4.37
2023-03-15T00:31:29.364Z,4.39
2023-03-15T00:33:56.184Z,4.45
2023-03-15T00:36:25.627Z,4.47
2023-03-15T00:38:56.769Z,4.46
2023-03-15T00:41:24.424Z,4.45
2023-03-15T00:43:52.414Z,4.38
2023-03-15T00:46:20.032Z,4.45
2023-03-15T00:48:51.288Z,4.50
2023-03-15T00:51:21.304Z,4.52
2023-03-15T00:53:52.767Z,4.50
2023-03-15T00:56:22.623Z,4.50
2023-03-15T00:58:50.215Z,4.30
2023-03-15T01:01:23.123Z,4.30
2023-03-15T01:03:50.580Z,4.29
2023-03-15T01:06:20.604Z,4.20
2023-03-15T01:08:50.979Z,4.08
2023-03-15T01:11:21.258Z,4.15
2023-03-15T01:13:48.223Z,4.10
2023-03-15T01:16:15.987Z,3.74
2023-03-15T01:18:44.319Z,3.64
2023-03-15T01:21:14.296Z,3.72
2023-03-15T01:23:42.158Z,3.77
2023-03-15T01:26:14.529Z,3.81
2023-03-15T01:28:41.686Z,3.81
2023-03-15T01:31:16.875Z,3.77
2023-03-15T01:33:44.868Z,3.82
2023-03-15T01:36:12.555Z,3.77
2023-03-15T01:38:40.145Z,3.76
2023-03-15T01:41:07.865Z,3.73
2023-03-15T01:43:35.957Z,3.70
2023-03-15T01:46:21.509Z,3.66
2023-03-15T01:48:56.918Z,3.57
2023-03-15T01:51:36.940Z,3.56
2023-03-15T01:54:10.248Z,3.53
2023-03-15T01:56:45.872Z,3.51
2023-03-15T01:59:24.345Z,3.45
2023-03-15T02:01:53.620Z,3.24
2023-03-15T02:04:28.723Z,3.28
2023-03-15T02:07:01.940Z,3.20
2023-03-15T02:09:40.896Z,3.24
2023-03-15T02:12:10.395Z,3.26
2023-03-15T02:14:40.639Z,3.28
2023-03-15T02:17:08.825Z,3.17
2023-03-15T02:19:51.755Z,3.20
2023-03-15T02:22:40.042Z,3.12
2023-03-15T02:25:17.026Z,3.11
2023-03-15T02:27:45.886Z,3.10
2023-03-15T02:30:15.199Z,3.09
2023-03-15T02:32:42.445Z,3.08
2023-03-15T02:35:09.775Z,3.10
2023-03-15T02:37:36.559Z,3.08
2023-03-15T02:40:19.330Z,3.08
2023-03-15T02:42:53.843Z,3.06
2023-03-15T02:45:21.697Z,3.07
2023-03-15T02:47:51.572Z,3.04
2023-03-15T02:50:19.160Z,3.07
2023-03-15T02:52:46.216Z,3.05
2023-03-15T02:55:13.198Z,3.07
2023-03-15T02:57:40.215Z,3.10
2023-03-15T03:00:11.114Z,3.06
2023-03-15T03:02:37.979Z,3.03
2023-03-15T03:05:05.948Z,3.03
2023-03-15T03:07:32.934Z,3.04
2023-03-15T03:10:05.204Z,2.98
2023-03-15T03:12:41.718Z,2.99
2023-03-15T03:15:11.632Z,2.99
2023-03-15T03:17:39.130Z,2.99
2023-03-15T03:20:09.079Z,2.95
2023-03-15T03:22:41.781Z,2.97
2023-03-15T03:25:10.248Z,3.00
2023-03-15T03:27:37.380Z,3.02
2023-03-15T03:30:11.722Z,3.02
2023-03-15T03:32:41.263Z,3.01
2023-03-15T03:35:09.358Z,2.96
2023-03-15T03:37:36.510Z,2.94
2023-03-15T03:40:11.166Z,2.94
2023-03-15T03:42:38.720Z,3.00
2023-03-15T03:45:08.175Z,3.02
2023-03-15T03:47:42.197Z,3.05
2023-03-15T03:50:11.485Z,3.05
2023-03-15T03:52:38.882Z,3.04
2023-03-15T03:55:10.132Z,2.99
2023-03-15T03:57:37.552Z,2.95
2023-03-15T04:00:20.639Z,2.95
2023-03-15T04:02:51.587Z,2.89
2023-03-15T04:05:18.503Z,2.95
2023-03-15T04:07:45.545Z,2.96
2023-03-15T04:10:15.694Z,3.02
2023-03-15T04:12:46.286Z,3.00
2023-03-15T04:15:14.824Z,3.04
2023-03-15T04:17:42.314Z,3.06
2023-03-15T04:20:11.938Z,3.09
2023-03-15T04:22:42.827Z,3.02
2023-03-15T04:25:42.610Z,3.00
2023-03-15T04:28:16.180Z,2.81
2023-03-15T04:30:56.372Z,2.20
2023-03-15T04:33:40.773Z,1.64
2023-03-15T04:36:26.968Z,1.43
2023-03-15T04:39:13.106Z,1.46
2023-03-15T04:41:58.580Z,1.40
2023-03-15T04:44:35.726Z,1.34
2023-03-15T04:47:21.743Z,1.43
2023-03-15T04:50:09.669Z,1.57
2023-03-15T04:52:53.681Z,1.57
2023-03-15T04:55:35.533Z,1.52
2023-03-15T04:58:21.961Z,1.23
2023-03-15T05:01:02.104Z,0.99
2023-03-15T05:03:58.800Z,0.84
2023-03-15T05:06:48.170Z,0.77
2023-03-15T05:09:40.245Z,0.68
2023-03-15T05:12:33.666Z,0.77
2023-03-15T05:15:15.485Z,0.71
2023-03-15T05:18:08.748Z,0.76
2023-03-15T05:21:07.173Z,0.76
2023-03-15T05:23:47.454Z,0.96
2023-03-15T05:26:48.182Z,1.20
2023-03-15T05:29:39.135Z,1.42
2023-03-15T05:32:24.647Z,1.64
2023-03-15T05:35:13.295Z,1.75
2023-03-15T05:37:49.356Z,1.85
2023-03-15T05:40:44.926Z,1.95
2023-03-15T05:43:36.034Z,1.96
2023-03-15T05:46:16.028Z,2.10
2023-03-15T05:48:58.358Z,2.20
2023-03-15T05:51:34.572Z,2.18
2023-03-15T05:54:21.789Z,2.21
2023-03-15T05:56:48.668Z,2.40
2023-03-15T05:59:16.835Z,2.76
2023-03-15T06:02:07.468Z,3.34
2023-03-15T06:04:42.581Z,3.62
2023-03-15T06:07:13.093Z,3.81
2023-03-15T06:09:40.209Z,4.27
2023-03-15T06:12:07.549Z,4.49
2023-03-15T06:14:37.382Z,4.89
2023-03-15T06:17:10.942Z,5.50
2023-03-15T06:19:41.712Z,6.29
2023-03-15T06:22:10.650Z,6.54
2023-03-15T06:24:52.642Z,6.34
2023-03-15T06:27:19.900Z,6.47
2023-03-15T06:29:48.730Z,7.04
2023-03-15T06:32:17.231Z,8.12
2023-03-15T06:34:44.242Z,8.75
2023-03-15T06:37:14.684Z,8.43
2023-03-15T06:39:43.305Z,9.66
2023-03-15T06:42:10.884Z,10.65
2023-03-15T06:44:39.524Z,11.15
2023-03-15T06:47:11.040Z,12.19
2023-03-15T06:49:38.140Z,11.15
2023-03-15T06:52:10.916Z,10.04
2023-03-15T06:54:38.875Z,9.72
2023-03-15T06:57:05.748Z,8.62
2023-03-15T06:59:32.932Z,8.40
2023-03-15T07:02:00.105Z,9.57
2023-03-15T07:04:28.344Z,11.07
2023-03-15T07:06:55.763Z,10.96
2023-03-15T07:09:22.770Z,11.64
2023-03-15T07:11:49.548Z,9.31
2023-03-15T07:14:16.363Z,6.83
2023-03-15T07:16:43.548Z,7.72
2023-03-15T07:19:10.574Z,8.16
2023-03-15T07:21:38.738Z,9.00
2023-03-15T07:24:07.965Z,10.46
2023-03-15T07:26:35.252Z,9.95
2023-03-15T07:29:02.231Z,10.57
2023-03-15T07:31:29.058Z,11.63
2023-03-15T07:33:55.944Z,12.30
2023-03-15T07:36:22.828Z,12.87
2023-03-15T07:38:51.057Z,13.03
2023-03-15T07:41:17.859Z,13.21
2023-03-15T07:43:58.350Z,12.53
2023-03-15T07:46:25.779Z,12.07
2023-03-15T07:48:52.577Z,13.47
2023-03-15T07:51:19.455Z,14.27
2023-03-15T07:53:46.234Z,13.98
2023-03-15T07:56:15.748Z,13.67
2023-03-15T07:58:43.142Z,11.44
2023-03-15T08:01:09.987Z,10.87
2023-03-15T08:03:36.768Z,10.29
2023-03-15T08:06:03.902Z,12.05
2023-03-15T08:08:30.736Z,12.15
2023-03-15T08:10:57.542Z,13.20
2023-03-15T08:13:26.094Z,14.60
2023-03-15T08:15:53.232Z,15.20
2023-03-15T08:18:20.078Z,14.51
2023-03-15T08:20:47.008Z,14.46
2023-03-15T08:23:14.084Z,14.27
2023-03-15T08:25:41.195Z,13.73
2023-03-15T08:28:08.082Z,14.06
2023-03-15T08:30:36.441Z,14.23
2023-03-15T08:33:04.877Z,14.94
2023-03-15T08:35:34.004Z,12.31
2023-03-15T08:38:01.507Z,13.74
2023-03-15T08:40:30.332Z,12.46
2023-03-15T08:42:58.065Z,12.22
2023-03-15T08:45:26.159Z,12.43
2023-03-15T08:47:56.542Z,11.21
2023-03-15T08:50:25.625Z,11.41
2023-03-15T08:52:52.946Z,10.93
2023-03-15T08:55:21.049Z,10.16
2023-03-15T08:57:48.003Z,9.80
2023-03-15T09:00:16.928Z,9.75
2023-03-15T09:02:43.976Z,9.60
2023-03-15T09:05:12.286Z,8.38
2023-03-15T09:07:39.680Z,8.56
2023-03-15T09:10:07.192Z,8.85
2023-03-15T09:12:34.025Z,9.34
2023-03-15T09:15:00.926Z,9.30
2023-03-15T09:17:27.884Z,9.17
2023-03-15T09:19:54.682Z,9.22
2023-03-15T09:22:38.688Z,9.48
2023-03-15T09:25:07.302Z,9.61
2023-03-15T09:27:34.369Z,9.74
2023-03-15T09:30:01.201Z,10.22
2023-03-15T09:32:28.640Z,10.87
2023-03-15T09:34:55.484Z,11.48
2023-03-15T09:37:23.834Z,10.47
2023-03-15T09:39:50.534Z,10.65
2023-03-15T09:42:29.137Z,10.48
2023-03-15T09:45:13.536Z,9.77
2023-03-15T09:47:53.039Z,9.31
2023-03-15T09:50:29.284Z,9.06
2023-03-15T09:53:06.329Z,8.84
2023-03-15T09:55:33.926Z,8.71
2023-03-15T09:58:03.711Z,8.65
2023-03-15T10:00:41.478Z,8.70
2023-03-15T10:03:19.689Z,8.68
2023-03-15T10:05:54.494Z,8.62
2023-03-15T10:08:26.164Z,8.51
2023-03-15T10:11:02.538Z,8.52
2023-03-15T10:13:51.725Z,8.20
2023-03-15T10:16:39.954Z,8.28
2023-03-15T10:19:17.948Z,8.20
2023-03-15T10:21:56.489Z,8.46
2023-03-15T10:24:36.374Z,8.84
2023-03-15T10:27:19.433Z,9.45
2023-03-15T10:29:51.536Z,9.31
2023-03-15T10:32:25.748Z,9.31
2023-03-15T10:34:58.296Z,9.21
2023-03-15T10:37:25.996Z,8.79
2023-03-15T10:39:59.013Z,8.45
2023-03-15T10:42:31.658Z,8.39
2023-03-15T10:45:10.848Z,8.19
2023-03-15T10:48:00.680Z,8.03
2023-03-15T10:50:32.682Z,7.97
2023-03-15T10:53:07.958Z,7.55
2023-03-15T10:55:43.683Z,7.41
2023-03-15T10:58:25.748Z,7.39
2023-03-15T11:00:59.904Z,7.14
2023-03-15T11:03:27.242Z,7.06
2023-03-15T11:05:57.384Z,6.71
2023-03-15T11:08:36.539Z,6.51
2023-03-15T11:11:06.850Z,6.32
2023-03-15T11:13:36.432Z,6.13
2023-03-15T11:16:08.542Z,5.88
2023-03-15T11:18:44.362Z,5.83
2023-03-15T11:21:16.103Z,5.72
2023-03-15T11:23:47.909Z,5.29
2023-03-15T11:26:31.578Z,5.22
2023-03-15T11:29:07.808Z,5.21
2023-03-15T11:31:36.141Z,5.20
2023-03-15T11:34:08.893Z,5.18
2023-03-15T11:36:43.496Z,5.27
2023-03-15T11:39:19.223Z,5.29
2023-03-15T11:41:55.045Z,5.33
2023-03-15T11:44:33.567Z,5.31
2023-03-15T11:47:12.778Z,5.24
2023-03-15T11:49:49.122Z,5.23
2023-03-15T11:52:17.173Z,5.05
2023-03-15T11:54:45.951Z,4.95
2023-03-15T11:57:42.379Z,4.87
2023-03-15T12:00:50.622Z,4.87
2023-03-15T12:03:40.942Z,4.86
2023-03-15T12:06:46.321Z,4.83
2023-03-15T12:09:41.150Z,4.81
2023-03-15T12:12:38.220Z,4.82
2023-03-15T12:15:43.550Z,4.78
2023-03-15T12:18:18.161Z,4.62
2023-03-15T12:21:08.067Z,4.58
2023-03-15T12:23:46.094Z,4.66
2023-03-15T12:26:27.202Z,4.91
2023-03-15T12:29:08.899Z,5.13
2023-03-15T12:31:56.024Z,5.17
2023-03-15T12:34:36.232Z,5.33
2023-03-15T12:37:08.676Z,5.49
2023-03-15T12:39:44.495Z,5.49
2023-03-15T12:42:34.786Z,5.56
2023-03-15T12:45:46.765Z,5.79
2023-03-15T12:48:26.663Z,6.08
2023-03-15T12:51:43.913Z,6.31
2023-03-15T12:54:16.047Z,6.59
2023-03-15T12:56:50.020Z,6.92
2023-03-15T12:59:39.890Z,7.23
2023-03-15T13:02:41.740Z,7.52
2023-03-15T13:05:20.127Z,7.74
2023-03-15T13:07:55.721Z,7.77
2023-03-15T13:11:07.712Z,8.07
2023-03-15T13:13:59.584Z,8.00
2023-03-15T13:16:37.197Z,7.85
2023-03-15T13:19:18.770Z,8.04
2023-03-15T13:22:10.028Z,8.18
2023-03-15T13:24:51.362Z,8.34
2023-03-15T13:27:44.333Z,8.42
2023-03-15T13:30:33.861Z,8.39
2023-03-15T13:33:19.342Z,8.27
2023-03-15T13:35:55.335Z,8.29
2023-03-15T13:38:29.505Z,8.06
2023-03-15T13:41:01.661Z,8.06
2023-03-15T13:43:32.604Z,7.76
2023-03-15T13:46:00.788Z,7.56
2023-03-15T13:48:30.177Z,7.52
2023-03-15T13:51:05.815Z,7.20
2023-03-15T13:53:48.625Z,6.99
2023-03-15T13:56:21.231Z,7.07
2023-03-15T13:58:50.310Z,7.19
2023-03-15T14:01:18.568Z,7.26
2023-03-15T14:03:54.539Z,7.49
2023-03-15T14:06:26.631Z,7.61
2023-03-15T14:09:01.171Z,7.68
2023-03-15T14:11:36.405Z,7.59
2023-03-15T14:14:22.451Z,7.67
2023-03-15T14:17:04.278Z,7.77
2023-03-15T14:19:35.622Z,8.02
2023-03-15T14:22:12.681Z,8.24
2023-03-15T14:24:43.266Z,8.25
2023-03-15T14:27:18.430Z,8.31
2023-03-15T14:29:49.069Z,8.43
2023-03-15T14:32:27.505Z,8.44
2023-03-15T14:35:01.708Z,8.52
2023-03-15T14:37:36.602Z,8.59
2023-03-15T14:40:18.735Z,8.56
2023-03-15T14:42:49.123Z,8.66
2023-03-15T14:45:17.028Z,8.58
2023-03-15T14:47:57.088Z,8.64
2023-03-15T14:50:28.050Z,8.62
2023-03-15T14:52:58.177Z,8.61
2023-03-15T14:55:31.244Z,8.71
2023-03-15T14:57:59.591Z,8.59
2023-03-15T15:00:27.242Z,8.65
2023-03-15T15:02:57.139Z,8.63
2023-03-15T15:05:28.616Z,8.58
2023-03-15T15:08:04.110Z,8.49
2023-03-15T15:10:32.948Z,8.48
2023-03-15T15:13:06.457Z,8.57
2023-03-15T15:15:47.345Z,8.64
2023-03-15T15:18:22.518Z,8.70
2023-03-15T15:20:49.500Z,8.71
2023-03-15T15:23:20.932Z,8.69
2023-03-15T15:25:51.578Z,8.58
2023-03-15T15:28:33.120Z,8.63
2023-03-15T15:31:01.330Z,8.72
2023-03-15T15:33:28.255Z,8.61
2023-03-15T15:35:57.861Z,8.73
2023-03-15T15:38:32.292Z,8.80
2023-03-15T15:40:59.318Z,7.89
2023-03-15T15:43:27.410Z,7.65
2023-03-15T15:45:54.268Z,7.56
2023-03-15T15:48:21.527Z,7.61
2023-03-15T15:50:48.449Z,7.84
2023-03-15T15:53:18.071Z,7.60
2023-03-15T15:55:45.624Z,7.37
2023-03-15T15:58:14.055Z,7.46
2023-03-15T16:00:42.248Z,7.63
2023-03-15T16:03:13.548Z,7.44
2023-03-15T16:05:40.710Z,7.20
2023-03-15T16:08:22.078Z,7.00
2023-03-15T16:10:49.800Z,6.95
2023-03-15T16:13:17.007Z,7.04
2023-03-15T16:15:45.221Z,7.12
2023-03-15T16:18:13.080Z,7.19
2023-03-15T16:20:41.907Z,7.29
2023-03-15T16:23:17.867Z,7.35
2023-03-15T16:25:49.412Z,7.25
2023-03-15T16:28:16.490Z,7.41
2023-03-15T16:30:46.860Z,7.51
2023-03-15T16:33:16.437Z,7.57
2023-03-15T16:35:45.581Z,7.57
2023-03-15T16:38:17.171Z,7.59
2023-03-15T16:40:46.270Z,7.61
2023-03-15T16:43:13.808Z,7.60
2023-03-15T16:45:40.969Z,7.58
2023-03-15T16:48:09.384Z,7.34
2023-03-15T16:50:36.694Z,7.34
2023-03-15T16:53:08.249Z,7.35
2023-03-15T16:55:36.441Z,7.40
2023-03-15T16:58:16.378Z,7.40
2023-03-15T17:00:43.529Z,7.37
2023-03-15T17:03:11.698Z,7.32
2023-03-15T17:05:47.272Z,6.93
2023-03-15T17:08:18.654Z,6.89
2023-03-15T17:10:46.208Z,6.79
2023-03-15T17:13:16.829Z,6.80
2023-03-15T17:15:44.864Z,6.79
2023-03-15T17:18:18.315Z,6.82
2023-03-15T17:20:48.747Z,6.84
2023-03-15T17:23:16.900Z,6.68
2023-03-15T17:25:43.918Z,6.56
2023-03-15T17:28:11.523Z,6.59
2023-03-15T17:30:38.802Z,6.30
2023-03-15T17:33:06.015Z,5.87
2023-03-15T17:35:39.612Z,5.81
2023-03-15T17:38:18.050Z,5.63
2023-03-15T17:40:45.865Z,5.65
2023-03-15T17:43:15.596Z,5.67
2023-03-15T17:45:43.058Z,5.67
2023-03-15T17:48:09.914Z,5.62
2023-03-15T17:50:40.023Z,5.53
2023-03-15T17:53:15.493Z,5.50
2023-03-15T17:55:43.314Z,5.47
2023-03-15T17:58:15.612Z,5.51
2023-03-15T18:00:42.386Z,5.44
2023-03-15T18:03:11.958Z,5.38
2023-03-15T18:05:40.593Z,5.17
2023-03-15T18:08:11.559Z,5.25
2023-03-15T18:10:40.776Z,5.33
2023-03-15T18:13:11.768Z,5.21
2023-03-15T18:15:38.694Z,5.30
2023-03-15T18:18:06.674Z,5.39
2023-03-15T18:20:33.601Z,5.42
2023-03-15T18:23:02.227Z,5.45
2023-03-15T18:25:33.305Z,5.51
2023-03-15T18:28:00.742Z,5.46
2023-03-15T18:30:31.020Z,5.42
2023-03-15T18:32:58.526Z,5.22
2023-03-15T18:35:29.683Z,5.30
2023-03-15T18:37:56.861Z,5.33
2023-03-15T18:40:31.237Z,5.33
2023-03-15T18:42:58.834Z,5.24
2023-03-15T18:45:28.971Z,5.18
2023-03-15T18:47:55.745Z,5.10
2023-03-15T18:50:23.296Z,4.83
2023-03-15T18:52:50.205Z,4.84
2023-03-15T18:55:19.595Z,4.79
2023-03-15T18:57:49.102Z,4.83
2023-03-15T19:00:19.678Z,4.80
2023-03-15T19:02:46.713Z,4.97
2023-03-15T19:05:16.100Z,5.10
2023-03-15T19:07:42.897Z,5.11
2023-03-15T19:10:13.444Z,4.97
2023-03-15T19:12:40.966Z,4.80
2023-03-15T19:15:11.095Z,4.84
2023-03-15T19:17:39.008Z,4.85
2023-03-15T19:20:08.509Z,4.91
2023-03-15T19:22:35.462Z,4.97
2023-03-15T19:25:02.534Z,4.96
2023-03-15T19:27:29.349Z,4.93
2023-03-15T19:29:56.122Z,4.90
2023-03-15T19:32:24.576Z,4.88
2023-03-15T19:34:51.544Z,4.88
2023-03-15T19:37:18.687Z,4.86
2023-03-15T19:39:45.414Z,4.81
2023-03-15T19:42:12.363Z,4.72
2023-03-15T19:44:39.269Z,4.57
2023-03-15T19:47:06.242Z,4.39
2023-03-15T19:49:34.419Z,4.35
2023-03-15T19:52:01.230Z,4.01
2023-03-15T19:54:28.379Z,3.87
2023-03-15T19:56:55.183Z,3.91
2023-03-15T19:59:22.061Z,3.98
2023-03-15T20:01:48.969Z,4.15
2023-03-15T20:04:19.465Z,4.21
2023-03-15T20:06:47.670Z,4.32
2023-03-15T20:09:14.755Z,4.43
2023-03-15T20:11:41.610Z,4.49
2023-03-15T20:14:08.760Z,4.31
2023-03-15T20:16:35.647Z,4.19
2023-03-15T20:19:02.681Z,4.11
2023-03-15T20:21:29.905Z,4.18
2023-03-15T20:23:58.053Z,4.22
2023-03-15T20:26:24.916Z,4.25
2023-03-15T20:28:52.102Z,4.19
2023-03-15T20:31:19.249Z,4.19
2023-03-15T20:33:50.048Z,4.13
2023-03-15T20:36:18.236Z,4.08
2023-03-15T20:38:46.028Z,4.13
2023-03-15T20:41:14.364Z,4.16
2023-03-15T20:43:42.090Z,4.17
2023-03-15T20:46:09.682Z,4.23
2023-03-15T20:48:37.276Z,4.16
2023-03-15T20:51:05.813Z,3.81
2023-03-15T20:53:35.305Z,3.59
2023-03-15T20:56:04.093Z,3.60
2023-03-15T20:58:32.786Z,3.62
2023-03-15T21:01:05.052Z,3.70
2023-03-15T21:03:33.075Z,3.73
2023-03-15T21:06:00.704Z,3.74
2023-03-15T21:08:28.022Z,3.75
2023-03-15T21:10:55.141Z,3.56
2023-03-15T21:13:22.533Z,3.41
2023-03-15T21:15:53.089Z,3.33
2023-03-15T21:18:23.190Z,3.39
2023-03-15T21:20:57.138Z,3.45
2023-03-15T21:23:25.013Z,3.52
2023-03-15T21:25:55.601Z,3.55
2023-03-15T21:28:23.670Z,3.55
2023-03-15T21:30:52.966Z,3.29
2023-03-15T21:33:20.501Z,3.14
2023-03-15T21:35:49.138Z,2.98
2023-03-15T21:38:17.151Z,3.02
2023-03-15T21:40:44.286Z,3.06
2023-03-15T21:43:11.380Z,3.08
2023-03-15T21:45:38.370Z,2.95
2023-03-15T21:48:07.556Z,3.00
2023-03-15T21:50:35.506Z,2.94
2023-03-15T21:53:02.829Z,2.92
2023-03-15T21:55:31.069Z,3.07
2023-03-15T21:57:57.929Z,3.08
2023-03-15T22:00:25.212Z,3.23
2023-03-15T22:02:54.484Z,3.32
2023-03-15T22:05:24.116Z,3.40
2023-03-15T22:07:50.982Z,3.39
2023-03-15T22:10:17.962Z,3.41
2023-03-15T22:12:44.736Z,3.44
2023-03-15T22:15:12.556Z,3.48
2023-03-15T22:17:39.856Z,3.30
2023-03-15T22:20:09.603Z,3.11
2023-03-15T22:22:37.977Z,3.05
2023-03-15T22:25:05.609Z,3.01
2023-03-15T22:27:32.653Z,2.90
2023-03-15T22:29:59.421Z,2.98
2023-03-15T22:32:26.588Z,3.08
2023-03-15T22:34:53.392Z,3.08
2023-03-15T22:37:20.409Z,2.89
2023-03-15T22:39:48.586Z,2.74
2023-03-15T22:42:15.579Z,2.76
2023-03-15T22:44:42.442Z,2.86
2023-03-15T22:47:10.052Z,2.79
2023-03-15T22:49:37.282Z,2.63
2023-03-15T22:52:05.229Z,2.60
2023-03-15T22:54:32.035Z,2.62
2023-03-15T22:57:00.154Z,2.30
2023-03-15T22:59:26.976Z,2.34
2023-03-15T23:01:53.809Z,2.20
2023-03-15T23:04:20.678Z,2.14
2023-03-15T23:06:47.590Z,2.28
2023-03-15T23:09:14.401Z,2.34
2023-03-15T23:11:41.172Z,2.36
2023-03-15T23:14:09.341Z,2.43
2023-03-15T23:16:36.188Z,2.37
2023-03-15T23:19:03.202Z,2.36
2023-03-15T23:21:30.238Z,2.29
2023-03-15T23:23:57.106Z,2.40
2023-03-15T23:26:23.912Z,2.55
2023-03-15T23:28:51.452Z,2.65
2023-03-15T23:31:20.258Z,2.72
2023-03-15T23:33:47.505Z,2.67
2023-03-15T23:36:14.866Z,2.65
2023-03-15T23:38:41.718Z,2.67
2023-03-15T23:41:08.929Z,2.64
2023-03-15T23:43:36.190Z,2.68
2023-03-15T23:46:05.044Z,2.69
2023-03-15T23:48:33.937Z,2.72
2023-03-15T23:51:02.523Z,2.73
2023-03-15T23:53:30.004Z,2.78
2023-03-15T23:55:57.048Z,2.82
2023-03-15T23:58:24.338Z,2.80
